createdAt,value
2023-02-25T00:01:35.157Z,15.88
2023-02-25T00:04:01.736Z,10.90
2023-02-25T00:06:28.560Z,10.60
2023-02-25T00:08:55.514Z,15.95
2023-02-25T00:11:23.702Z,13.40
2023-02-25T00:13:50.669Z,11.27
2023-02-25T00:16:17.517Z,11.15
2023-02-25T00:18:47.221Z,17.20
2023-02-25T00:21:15.474Z,12.68
2023-02-25T00:23:46.320Z,16.58
2023-02-25T00:26:13.077Z,17.27
2023-02-25T00:28:42.954Z,11.95
2023-02-25T00:31:11.289Z,13.65
2023-02-25T00:33:42.450Z,14.90
2023-02-25T00:36:15.245Z,16.20
2023-02-25T00:38:41.826Z,21.23
2023-02-25T00:41:11.888Z,9.85
2023-02-25T00:43:39.409Z,16.65
2023-02-25T00:46:06.145Z,18.30
2023-02-25T00:48:33.640Z,16.20
2023-02-25T00:51:04.513Z,16.75
2023-02-25T00:53:31.028Z,11.07
2023-02-25T00:56:01.611Z,14.75
2023-02-25T00:58:29.203Z,21.50
2023-02-25T01:00:55.968Z,12.93
2023-02-25T01:03:23.185Z,16.60
2023-02-25T01:05:50.735Z,10.95
2023-02-25T01:08:18.014Z,15.40
2023-02-25T01:10:45.577Z,18.23
2023-02-25T01:13:12.399Z,14.27
2023-02-25T01:15:39.058Z,15.55
2023-02-25T01:18:05.809Z,16.23
2023-02-25T01:20:32.955Z,15.40
2023-02-25T01:22:59.299Z,14.38
2023-02-25T01:25:26.031Z,15.23
2023-02-25T01:27:56.255Z,15.77
2023-02-25T01:30:23.162Z,14.65
2023-02-25T01:32:50.754Z,19.77
2023-02-25T01:35:17.562Z,17.60
2023-02-25T01:37:46.794Z,14.80
2023-02-25T01:40:16.386Z,14.13
2023-02-25T01:42:44.152Z,19.48
2023-02-25T01:45:11.344Z,20.27
2023-02-25T01:47:39.750Z,17.65
2023-02-25T01:50:06.889Z,19.38
2023-02-25T01:52:33.637Z,14.02
2023-02-25T01:55:00.270Z,19.95
2023-02-25T01:57:26.935Z,17.85
2023-02-25T01:59:54.214Z,20.98
2023-02-25T02:02:24.370Z,18.15
2023-02-25T02:04:53.217Z,16.45
2023-02-25T02:07:20.709Z,21.45
2023-02-25T02:09:56.165Z,18.73
2023-02-25T02:12:33.456Z,14.52
2023-02-25T02:15:02.417Z,21.50
2023-02-25T02:17:30.291Z,17.30
2023-02-25T02:20:13.802Z,17.40
2023-02-25T02:23:15.040Z,19.15
2023-02-25T02:26:00.819Z,19.67
2023-02-25T02:28:36.401Z,16.90
2023-02-25T02:31:20.154Z,18.85
2023-02-25T02:33:46.640Z,20.70
2023-02-25T02:36:19.595Z,16.42
2023-02-25T02:38:50.534Z,13.75
2023-02-25T02:41:37.182Z,16.15
2023-02-25T02:44:16.662Z,16.88
2023-02-25T02:46:51.380Z,17.40
2023-02-25T02:49:20.719Z,19.80
2023-02-25T02:51:51.779Z,11.88
2023-02-25T02:54:18.831Z,17.70
2023-02-25T02:56:46.638Z,19.27
2023-02-25T02:59:27.682Z,15.48
2023-02-25T03:01:57.738Z,16.60
2023-02-25T03:04:28.206Z,15.40
2023-02-25T03:07:04.335Z,17.38
2023-02-25T03:09:35.860Z,19.65
2023-02-25T03:12:02.641Z,12.98
2023-02-25T03:14:32.650Z,14.27
2023-02-25T03:17:07.623Z,16.40
2023-02-25T03:19:39.529Z,20.45
2023-02-25T03:22:14.085Z,17.75
2023-02-25T03:24:50.601Z,16.67
2023-02-25T03:27:35.359Z,14.07
2023-02-25T03:30:15.369Z,15.57
2023-02-25T03:32:44.946Z,17.48
2023-02-25T03:35:12.400Z,16.52
2023-02-25T03:37:39.464Z,14.98
2023-02-25T03:40:11.300Z,17.58
2023-02-25T03:42:41.884Z,15.15
2023-02-25T03:45:10.948Z,19.88
2023-02-25T03:47:38.440Z,19.02
2023-02-25T03:50:20.282Z,18.08
2023-02-25T03:52:52.046Z,20.60
2023-02-25T03:55:38.740Z,13.48
2023-02-25T03:58:10.392Z,16.38
2023-02-25T04:00:38.734Z,20.25
2023-02-25T04:03:05.551Z,20.67
2023-02-25T04:05:32.323Z,13.70
2023-02-25T04:07:59.162Z,15.77
2023-02-25T04:10:30.280Z,12.60
2023-02-25T04:12:56.869Z,17.40
2023-02-25T04:15:23.430Z,16.42
2023-02-25T04:17:50.093Z,15.07
2023-02-25T04:20:17.603Z,18.40
2023-02-25T04:22:44.458Z,22.05
2023-02-25T04:25:10.887Z,16.90
2023-02-25T04:27:37.477Z,14.48
2023-02-25T04:30:04.553Z,17.75
2023-02-25T04:32:31.257Z,16.55
2023-02-25T04:35:02.983Z,16.40
2023-02-25T04:37:29.875Z,15.55
2023-02-25T04:39:58.185Z,16.98
2023-02-25T04:42:24.540Z,13.93
2023-02-25T04:44:50.936Z,14.30
2023-02-25T04:47:18.997Z,17.05
2023-02-25T04:49:45.658Z,10.30
2023-02-25T04:52:13.009Z,14.55
2023-02-25T04:54:41.349Z,14.88
2023-02-25T04:57:08.922Z,19.80
2023-02-25T04:59:35.567Z,16.45
2023-02-25T05:02:02.394Z,19.23
2023-02-25T05:04:29.001Z,13.82
2023-02-25T05:06:55.770Z,13.95
2023-02-25T05:09:22.532Z,26.00
2023-02-25T05:11:48.995Z,15.45
2023-02-25T05:14:15.421Z,14.50
2023-02-25T05:16:42.062Z,16.65
2023-02-25T05:19:08.721Z,20.05
2023-02-25T05:21:35.423Z,16.40
2023-02-25T05:24:01.770Z,16.20
2023-02-25T05:26:28.475Z,13.20
2023-02-25T05:28:57.008Z,15.50
2023-02-25T05:31:25.102Z,16.42
2023-02-25T05:33:53.477Z,12.38
2023-02-25T05:36:20.178Z,12.90
2023-02-25T05:38:46.783Z,14.30
2023-02-25T05:41:13.639Z,19.20
2023-02-25T05:43:40.238Z,13.02
2023-02-25T05:46:11.618Z,17.67
2023-02-25T05:48:39.274Z,15.60
2023-02-25T05:51:08.051Z,19.35
2023-02-25T05:53:35.076Z,17.20
2023-02-25T05:56:05.789Z,14.93
2023-02-25T05:58:32.142Z,13.77
2023-02-25T06:00:58.650Z,13.43
2023-02-25T06:03:25.241Z,15.18
2023-02-25T06:05:53.205Z,17.92
2023-02-25T06:08:19.771Z,24.00
2023-02-25T06:10:46.515Z,16.15
2023-02-25T06:13:13.180Z,12.88
2023-02-25T06:15:40.631Z,16.08
2023-02-25T06:18:07.301Z,23.88
2023-02-25T06:20:35.356Z,13.15
2023-02-25T06:23:02.282Z,14.02
2023-02-25T06:25:30.174Z,19.83
2023-02-25T06:27:57.196Z,16.17
2023-02-25T06:30:24.122Z,17.88
2023-02-25T06:32:50.569Z,19.33
2023-02-25T06:35:18.122Z,19.35
2023-02-25T06:37:44.768Z,24.80
2023-02-25T06:40:15.575Z,16.42
2023-02-25T06:42:42.153Z,16.00
2023-02-25T06:45:08.724Z,18.58
2023-02-25T06:47:35.350Z,15.25
2023-02-25T06:50:02.750Z,14.40
2023-02-25T06:52:29.528Z,15.43
2023-02-25T06:54:56.060Z,19.63
2023-02-25T06:57:22.583Z,17.88
2023-02-25T06:59:49.549Z,17.13
2023-02-25T07:02:16.125Z,17.08
2023-02-25T07:04:44.069Z,20.10
2023-02-25T07:07:11.098Z,16.52
2023-02-25T07:09:37.650Z,21.15
2023-02-25T07:12:04.369Z,17.02
2023-02-25T07:14:31.078Z,16.67
2023-02-25T07:16:57.693Z,18.23
2023-02-25T07:19:24.087Z,20.75
2023-02-25T07:21:50.458Z,13.90
2023-02-25T07:24:17.452Z,19.30
2023-02-25T07:26:43.807Z,15.38
2023-02-25T07:29:10.607Z,17.58
2023-02-25T07:31:37.480Z,17.38
2023-02-25T07:34:04.901Z,15.30
2023-02-25T07:36:36.042Z,13.32
2023-02-25T07:39:04.420Z,12.90
2023-02-25T07:41:31.119Z,10.27
2023-02-25T07:44:02.253Z,11.60
2023-02-25T07:46:29.375Z,13.55
2023-02-25T07:48:55.996Z,12.02
2023-02-25T07:51:24.294Z,13.52
2023-02-25T07:53:51.805Z,14.60
2023-02-25T07:56:19.415Z,9.52
2023-02-25T07:58:47.651Z,11.88
2023-02-25T08:01:24.592Z,9.05
2023-02-25T08:03:51.995Z,10.32
2023-02-25T08:06:18.577Z,12.05
2023-02-25T08:08:45.509Z,9.30
2023-02-25T08:11:14.387Z,10.77
2023-02-25T08:13:41.505Z,10.15
2023-02-25T08:16:10.213Z,11.43
2023-02-25T08:18:36.950Z,13.45
2023-02-25T08:21:04.733Z,14.57
2023-02-25T08:23:32.363Z,12.43
2023-02-25T08:25:59.449Z,12.38
2023-02-25T08:28:27.097Z,15.15
2023-02-25T08:30:54.709Z,13.00
2023-02-25T08:33:21.401Z,16.42
2023-02-25T08:35:47.823Z,13.07
2023-02-25T08:38:14.261Z,10.27
2023-02-25T08:40:40.768Z,10.07
2023-02-25T08:43:08.107Z,10.18
2023-02-25T08:45:35.992Z,12.88
2023-02-25T08:48:02.440Z,13.63
2023-02-25T08:50:29.980Z,14.55
2023-02-25T08:52:57.711Z,12.48
2023-02-25T08:55:25.284Z,11.32
2023-02-25T08:57:52.041Z,13.55
2023-02-25T09:00:19.520Z,13.00
2023-02-25T09:02:45.914Z,8.77
2023-02-25T09:05:12.418Z,9.90
2023-02-25T09:07:39.231Z,11.25
2023-02-25T09:10:10.374Z,9.05
2023-02-25T09:12:38.269Z,8.45
2023-02-25T09:15:05.143Z,7.97
2023-02-25T09:17:31.823Z,12.55
2023-02-25T09:20:01.417Z,7.53
2023-02-25T09:22:28.490Z,7.10
2023-02-25T09:24:55.925Z,11.13
2023-02-25T09:27:22.537Z,12.05
2023-02-25T09:29:48.904Z,7.28
2023-02-25T09:32:19.829Z,9.25
2023-02-25T09:34:49.298Z,11.20
2023-02-25T09:37:16.549Z,6.53
2023-02-25T09:39:43.196Z,9.75
2023-02-25T09:42:10.504Z,9.02
2023-02-25T09:44:40.845Z,9.18
2023-02-25T09:47:19.801Z,13.18
2023-02-25T09:49:48.324Z,7.40
2023-02-25T09:52:19.196Z,10.60
2023-02-25T09:54:47.254Z,8.20
2023-02-25T09:57:19.138Z,6.90
2023-02-25T09:59:49.917Z,11.07
2023-02-25T10:02:21.330Z,8.68
2023-02-25T10:05:12.059Z,10.10
2023-02-25T10:07:47.334Z,10.77
2023-02-25T10:10:18.917Z,9.63
2023-02-25T10:12:53.665Z,11.43
2023-02-25T10:15:23.180Z,8.65
2023-02-25T10:18:11.180Z,7.60
2023-02-25T10:20:49.387Z,10.02
2023-02-25T10:23:18.803Z,8.82
2023-02-25T10:25:54.826Z,12.80
2023-02-25T10:28:22.734Z,10.45
2023-02-25T10:30:59.500Z,7.82
2023-02-25T10:33:27.769Z,10.02
2023-02-25T10:35:56.676Z,9.02
2023-02-25T10:38:23.236Z,10.23
2023-02-25T10:40:49.766Z,9.60
2023-02-25T10:43:21.558Z,12.15
2023-02-25T10:45:51.965Z,8.77
2023-02-25T10:48:21.255Z,15.38
2023-02-25T10:51:05.900Z,15.93
2023-02-25T10:53:35.646Z,19.08
2023-02-25T10:56:02.976Z,23.30
2023-02-25T10:58:29.458Z,11.38
2023-02-25T11:00:58.426Z,9.65
2023-02-25T11:03:25.481Z,10.25
2023-02-25T11:05:51.884Z,10.25
2023-02-25T11:08:29.042Z,11.68
2023-02-25T11:11:06.331Z,12.32
2023-02-25T11:13:34.883Z,11.40
2023-02-25T11:16:06.953Z,12.93
2023-02-25T11:18:34.292Z,8.95
2023-02-25T11:21:02.686Z,12.70
2023-02-25T11:23:48.642Z,12.23
2023-02-25T11:26:35.595Z,7.75
2023-02-25T11:29:05.038Z,6.90
2023-02-25T11:31:35.789Z,13.98
2023-02-25T11:34:05.798Z,10.82
2023-02-25T11:36:37.045Z,7.15
2023-02-25T11:39:13.553Z,12.65
2023-02-25T11:41:40.294Z,11.70
2023-02-25T11:44:21.594Z,13.70
2023-02-25T11:47:11.036Z,12.07
2023-02-25T11:49:58.475Z,8.60
2023-02-25T11:52:30.294Z,10.32
2023-02-25T11:55:12.933Z,7.15
2023-02-25T11:57:39.417Z,8.35
2023-02-25T12:00:25.853Z,3.55
2023-02-25T12:03:06.929Z,3.58
2023-02-25T12:05:44.312Z,2.72
2023-02-25T12:08:13.877Z,2.25
2023-02-25T12:10:52.851Z,2.47
2023-02-25T12:13:38.041Z,3.78
2023-02-25T12:16:23.203Z,2.97
2023-02-25T12:18:50.228Z,3.45
2023-02-25T12:21:35.542Z,3.42
2023-02-25T12:24:08.026Z,3.45
2023-02-25T12:26:54.772Z,4.03
2023-02-25T12:29:33.164Z,1.98
2023-02-25T12:32:06.353Z,3.50
2023-02-25T12:34:53.284Z,4.25
2023-02-25T12:38:00.291Z,3.47
2023-02-25T12:40:42.525Z,8.20
2023-02-25T12:43:27.367Z,3.90
2023-02-25T12:45:54.064Z,4.88
2023-02-25T12:48:20.439Z,6.07
2023-02-25T12:50:55.814Z,3.00
2023-02-25T12:53:31.566Z,3.05
2023-02-25T12:56:11.478Z,2.95
2023-02-25T12:58:41.677Z,4.40
2023-02-25T13:01:14.371Z,3.35
2023-02-25T13:03:50.245Z,2.17
2023-02-25T13:06:36.885Z,3.35
2023-02-25T13:09:03.611Z,2.30
2023-02-25T13:12:10.636Z,5.93
2023-02-25T13:14:44.431Z,4.15
2023-02-25T13:17:16.268Z,2.58
2023-02-25T13:20:02.917Z,4.88
2023-02-25T13:22:32.331Z,3.15
2023-02-25T13:25:13.885Z,3.60
2023-02-25T13:27:41.798Z,2.15
2023-02-25T13:30:14.500Z,3.17
2023-02-25T13:32:54.013Z,3.45
2023-02-25T13:35:21.107Z,5.10
2023-02-25T13:37:54.741Z,3.70
2023-02-25T13:40:27.117Z,4.70
2023-02-25T13:43:19.607Z,3.10
2023-02-25T13:45:46.038Z,4.03
2023-02-25T13:48:18.800Z,3.53
2023-02-25T13:50:57.145Z,2.00
2023-02-25T13:53:30.224Z,2.78
2023-02-25T13:56:15.510Z,3.37
2023-02-25T13:59:00.862Z,2.75
2023-02-25T14:01:31.676Z,4.68
2023-02-25T14:04:17.137Z,4.45
2023-02-25T14:07:02.380Z,5.80
2023-02-25T14:09:42.874Z,6.13
2023-02-25T14:12:15.418Z,3.53
2023-02-25T14:15:00.867Z,3.05
2023-02-25T14:17:36.487Z,4.95
2023-02-25T14:20:11.211Z,4.38
2023-02-25T14:22:53.759Z,2.60
2023-02-25T14:25:40.440Z,2.33
2023-02-25T14:28:17.341Z,3.15
2023-02-25T14:30:46.800Z,3.72
2023-02-25T14:33:25.130Z,3.88
2023-02-25T14:35:52.521Z,4.82
2023-02-25T14:38:26.331Z,3.35
2023-02-25T14:40:57.430Z,2.97
2023-02-25T14:43:29.664Z,6.13
2023-02-25T14:46:03.017Z,3.67
2023-02-25T14:48:52.475Z,5.00
2023-02-25T14:51:37.721Z,7.55
2023-02-25T14:54:07.472Z,4.88
2023-02-25T14:56:37.246Z,5.78
2023-02-25T14:59:18.031Z,4.22
2023-02-25T15:01:53.724Z,3.65
2023-02-25T15:04:39.270Z,4.68
2023-02-25T15:07:11.800Z,5.55
2023-02-25T15:10:05.166Z,4.25
2023-02-25T15:12:32.803Z,4.03
2023-02-25T15:15:18.296Z,2.80
2023-02-25T15:17:50.710Z,5.28
2023-02-25T15:20:26.971Z,3.80
2023-02-25T15:23:12.849Z,5.55
2023-02-25T15:25:45.285Z,5.82
2023-02-25T15:28:30.178Z,5.88
2023-02-25T15:31:02.973Z,11.40
2023-02-25T15:33:42.756Z,8.75
2023-02-25T15:36:15.265Z,4.65
2023-02-25T15:38:42.040Z,6.85
2023-02-25T15:41:27.123Z,5.28
2023-02-25T15:44:08.982Z,5.28
2023-02-25T15:46:37.322Z,6.22
2023-02-25T15:49:12.951Z,10.73
2023-02-25T15:51:42.501Z,6.43
2023-02-25T15:54:33.179Z,9.10
2023-02-25T15:57:00.587Z,3.75
2023-02-25T15:59:46.534Z,8.05
2023-02-25T16:02:34.747Z,4.30
2023-02-25T16:05:14.182Z,5.30
2023-02-25T16:07:42.528Z,4.13
2023-02-25T16:10:19.456Z,4.93
2023-02-25T16:12:49.199Z,4.60
2023-02-25T16:15:21.838Z,7.70
2023-02-25T16:17:48.674Z,6.78
2023-02-25T16:20:18.253Z,7.05
2023-02-25T16:22:46.522Z,7.32
2023-02-25T16:25:15.905Z,5.10
2023-02-25T16:27:54.627Z,6.95
2023-02-25T16:30:29.123Z,6.07
2023-02-25T16:33:14.512Z,7.85
2023-02-25T16:36:02.634Z,4.80
2023-02-25T16:38:51.202Z,6.05
2023-02-25T16:41:17.896Z,8.05
2023-02-25T16:43:45.709Z,7.75
2023-02-25T16:46:20.976Z,9.43
2023-02-25T16:48:53.113Z,9.38
2023-02-25T16:51:21.946Z,4.88
2023-02-25T16:53:50.334Z,6.15
2023-02-25T16:56:20.300Z,5.60
2023-02-25T16:59:02.195Z,9.95
2023-02-25T17:01:30.192Z,10.73
2023-02-25T17:04:12.581Z,3.88
2023-02-25T17:06:38.930Z,9.98
2023-02-25T17:09:05.288Z,7.25
2023-02-25T17:11:31.694Z,8.43
2023-02-25T17:13:59.243Z,4.15
2023-02-25T17:16:30.353Z,6.85
2023-02-25T17:18:58.734Z,8.45
2023-02-25T17:21:27.462Z,8.20
2023-02-25T17:23:54.409Z,6.47
2023-02-25T17:26:21.666Z,6.63
2023-02-25T17:28:51.682Z,5.07
2023-02-25T17:31:20.149Z,3.33
2023-02-25T17:33:55.578Z,7.40
2023-02-25T17:36:27.353Z,6.00
2023-02-25T17:38:58.684Z,4.43
2023-02-25T17:41:25.679Z,7.03
2023-02-25T17:43:52.484Z,7.00
2023-02-25T17:46:39.311Z,8.07
2023-02-25T17:49:32.128Z,6.30
2023-02-25T17:52:03.831Z,7.35
2023-02-25T17:54:32.689Z,4.45
2023-02-25T17:57:08.656Z,3.85
2023-02-25T17:59:39.062Z,3.35
2023-02-25T18:02:24.432Z,3.47
2023-02-25T18:04:53.840Z,2.42
2023-02-25T18:07:22.123Z,2.45
2023-02-25T18:09:49.084Z,4.53
2023-02-25T18:12:22.098Z,2.90
2023-02-25T18:14:52.116Z,3.05
2023-02-25T18:17:18.492Z,4.45
2023-02-25T18:19:46.281Z,1.90
2023-02-25T18:22:27.180Z,3.20
2023-02-25T18:24:54.602Z,1.52
2023-02-25T18:27:27.739Z,2.17
2023-02-25T18:29:56.359Z,2.55
2023-02-25T18:32:23.086Z,4.03
2023-02-25T18:34:49.702Z,3.15
2023-02-25T18:37:19.909Z,2.83
2023-02-25T18:39:47.406Z,4.13
2023-02-25T18:42:15.256Z,3.58
2023-02-25T18:44:42.100Z,2.50
2023-02-25T18:47:08.668Z,5.72
2023-02-25T18:49:35.234Z,2.92
2023-02-25T18:52:02.262Z,2.85
2023-02-25T18:54:29.277Z,4.35
2023-02-25T18:56:55.799Z,3.17
2023-02-25T18:59:22.335Z,5.35
2023-02-25T19:01:48.926Z,2.08
2023-02-25T19:04:16.362Z,3.55
2023-02-25T19:06:43.334Z,2.78
2023-02-25T19:09:09.899Z,3.83
2023-02-25T19:11:37.150Z,2.65
2023-02-25T19:14:04.844Z,2.40
2023-02-25T19:16:31.411Z,3.58
2023-02-25T19:18:58.240Z,2.33
2023-02-25T19:21:25.393Z,6.15
2023-02-25T19:23:55.558Z,8.55
2023-02-25T19:26:22.507Z,6.63
2023-02-25T19:28:49.025Z,5.32
2023-02-25T19:31:17.881Z,6.18
2023-02-25T19:33:44.793Z,5.90
2023-02-25T19:36:11.424Z,6.47
2023-02-25T19:38:37.908Z,4.85
2023-02-25T19:41:07.232Z,7.53
2023-02-25T19:43:33.988Z,7.68
2023-02-25T19:46:04.784Z,8.93
2023-02-25T19:51:11.549Z,6.25
2023-02-25T19:53:37.957Z,4.70
2023-02-25T19:56:05.444Z,3.83
2023-02-25T19:58:32.040Z,3.58
2023-02-25T20:01:03.388Z,2.63
2023-02-25T20:03:30.186Z,5.50
2023-02-25T20:05:56.593Z,2.85
2023-02-25T20:08:23.736Z,6.30
2023-02-25T20:10:50.462Z,9.30
2023-02-25T20:13:17.720Z,6.13
2023-02-25T20:15:44.573Z,4.57
2023-02-25T20:18:11.077Z,4.07
2023-02-25T20:20:40.492Z,4.88
2023-02-25T20:23:06.938Z,3.75
2023-02-25T20:25:33.441Z,5.53
2023-02-25T20:27:59.789Z,2.90
2023-02-25T20:30:26.513Z,3.55
2023-02-25T20:32:52.964Z,2.58
2023-02-25T20:35:20.964Z,2.90
2023-02-25T20:38:09.131Z,3.25
2023-02-25T20:40:35.736Z,5.07
2023-02-25T20:43:02.887Z,5.15
2023-02-25T20:45:29.941Z,5.15
2023-02-25T20:47:58.069Z,3.70
2023-02-25T20:50:26.574Z,3.67
2023-02-25T20:52:53.105Z,5.90
2023-02-25T20:55:19.494Z,5.55
2023-02-25T20:57:45.872Z,5.18
2023-02-25T21:00:16.542Z,8.20
2023-02-25T21:02:43.142Z,8.30
2023-02-25T21:05:09.641Z,7.07
2023-02-25T21:07:36.011Z,5.25
2023-02-25T21:10:02.638Z,5.15
2023-02-25T21:12:29.216Z,5.53
2023-02-25T21:14:55.647Z,4.05
2023-02-25T21:17:22.449Z,6.68
2023-02-25T21:19:49.518Z,5.63
2023-02-25T21:22:16.126Z,3.50
2023-02-25T21:24:45.566Z,5.60
2023-02-25T21:27:12.078Z,7.18
2023-02-25T21:29:38.690Z,9.00
2023-02-25T21:32:05.721Z,8.65
2023-02-25T21:34:32.338Z,6.70
2023-02-25T21:36:58.908Z,8.90
2023-02-25T21:39:26.036Z,8.60
2023-02-25T21:41:52.869Z,5.00
2023-02-25T21:44:21.384Z,7.22
2023-02-25T21:46:48.018Z,7.25
2023-02-25T21:49:14.644Z,6.28
2023-02-25T21:51:41.305Z,5.82
2023-02-25T21:54:08.099Z,7.43
2023-02-25T21:56:34.827Z,7.15
2023-02-25T21:59:02.168Z,6.78
2023-02-25T22:01:30.240Z,6.55
2023-02-25T22:03:57.549Z,9.38
2023-02-25T22:06:24.907Z,5.95
2023-02-25T22:08:52.771Z,6.68
2023-02-25T22:11:23.797Z,3.92
2023-02-25T22:13:53.319Z,5.55
2023-02-25T22:16:19.978Z,5.07
2023-02-25T22:18:46.654Z,6.50
2023-02-25T22:21:17.522Z,3.30
2023-02-25T22:23:44.302Z,5.60
2023-02-25T22:26:12.577Z,3.83
2023-02-25T22:28:39.349Z,6.03
2023-02-25T22:31:08.801Z,4.55
2023-02-25T22:33:35.224Z,3.97
2023-02-25T22:36:03.095Z,5.22
2023-02-25T22:38:30.770Z,5.78
2023-02-25T22:40:57.591Z,4.40
2023-02-25T22:43:24.300Z,5.55
2023-02-25T22:45:50.843Z,3.08
2023-02-25T22:48:18.463Z,5.47
2023-02-25T22:50:49.031Z,4.45
2023-02-25T22:53:16.597Z,5.57
2023-02-25T22:55:43.947Z,2.40
2023-02-25T22:58:10.734Z,5.30
2023-02-25T23:00:41.804Z,5.93
2023-02-25T23:03:08.777Z,7.57
2023-02-25T23:05:35.552Z,7.70
2023-02-25T23:08:02.879Z,8.32
2023-02-25T23:10:32.023Z,7.13
2023-02-25T23:12:59.764Z,10.15
2023-02-25T23:15:28.485Z,9.73
2023-02-25T23:17:55.417Z,8.27
2023-02-25T23:20:22.933Z,6.53
2023-02-25T23:22:51.327Z,5.38
2023-02-25T23:25:17.982Z,13.32
2023-02-25T23:27:44.321Z,7.75
2023-02-25T23:30:11.456Z,7.85
2023-02-25T23:32:39.036Z,9.68
2023-02-25T23:35:05.710Z,9.52
2023-02-25T23:37:32.356Z,7.22
2023-02-25T23:39:58.883Z,6.32
2023-02-25T23:42:25.582Z,4.25
2023-02-25T23:44:51.893Z,6.68
2023-02-25T23:47:19.498Z,6.85
2023-02-25T23:49:46.667Z,7.50
2023-02-25T23:52:13.102Z,5.75
2023-02-25T23:54:39.825Z,7.25
2023-02-25T23:57:06.721Z,4.75
2023-02-25T23:59:33.464Z,7.18
